Lost River, West Virginia
Current Conditions -  °F | °C
As of 4:55 AM on Sunday 26 Oct 2014 (Local Time) from K8W2 Reporting Station
Clear Clear  
Wind Chill: 55°   Ceiling: Unl
Heat Index: 55°   Visibility: 10mi
Dew Point: 34°   Wind: 3mph
Humidity: 46%   Direction: 40°NE
Pressure: 29.77"   Gusts: NA
Location:  38.9097°N, 78.8027°W
Report Text: K8W2 260855Z AUTO 04003KT 10SM CLR 13/01 A2977 RMK AO1 T01260012
Loading
Personal Weather Stations






























Interactive Weather Map
Tropical Storm Tracking
New forecast layout! Learn more

10-Day Weather Forecast

Advertisements
Track Severe Weather on mobile